createdAt,value
2022-08-07T00:04:17.093Z,15.1
2022-08-07T00:10:30.779Z,15.3
2022-08-07T00:16:59.185Z,15.1
2022-08-07T00:23:53.372Z,15.2
2022-08-07T00:30:31.724Z,15.1
2022-08-07T00:36:35.088Z,15
2022-08-07T00:42:43.054Z,14.7
2022-08-07T00:50:17.341Z,14.7
2022-08-07T00:57:02.734Z,14.5
2022-08-07T01:03:13.501Z,14.2
2022-08-07T01:10:16.587Z,14.3
2022-08-07T01:16:30.128Z,14.2
2022-08-07T01:22:36.381Z,14.2
2022-08-07T01:29:31.612Z,14.1
2022-08-07T01:36:12.485Z,14
2022-08-07T01:43:19.117Z,14.2
2022-08-07T01:50:02.946Z,13.7
2022-08-07T01:56:12.446Z,13.8
2022-08-07T02:03:12.834Z,13.7
2022-08-07T02:09:52.543Z,13.5
2022-08-07T02:16:01.451Z,13.6
2022-08-07T02:22:20.772Z,13.9
2022-08-07T02:28:54.087Z,13.3
2022-08-07T02:35:20.211Z,13.4
2022-08-07T02:42:56.522Z,13
2022-08-07T02:49:56.554Z,13.3
2022-08-07T03:03:49.583Z,13.3
2022-08-07T03:10:24.565Z,13.2
2022-08-07T03:17:14.821Z,13
2022-08-07T03:24:17.671Z,13.3
2022-08-07T03:37:37.539Z,12.7
2022-08-07T03:44:32.004Z,12.8
2022-08-07T03:50:59.232Z,12.6
2022-08-07T03:58:09.168Z,12.6
2022-08-07T04:05:39.289Z,12.5
2022-08-07T04:12:42.787Z,12.8
2022-08-07T04:26:22.149Z,12.5
2022-08-07T04:32:37.973Z,12.7
2022-08-07T04:39:12.994Z,12.7
2022-08-07T04:46:12.373Z,12.7
2022-08-07T04:54:01.231Z,12.4
2022-08-07T05:00:18.635Z,12.6
2022-08-07T05:06:28.202Z,13
2022-08-07T05:12:46.383Z,13.5
2022-08-07T05:19:20.455Z,14.5
2022-08-07T05:25:37.508Z,14.7
2022-08-07T05:32:12.095Z,15.3
2022-08-07T05:38:08.529Z,16.3
2022-08-07T05:46:55.769Z,17.3
2022-08-07T05:53:03.278Z,18.4
2022-08-07T06:00:36.961Z,25.8
2022-08-07T06:06:45.968Z,26.3
2022-08-07T06:12:51.066Z,24.2
2022-08-07T06:18:43.327Z,22.2
2022-08-07T06:24:52.264Z,17.8
2022-08-07T06:30:50.880Z,18.2
2022-08-07T06:36:44.132Z,17.5
2022-08-07T06:42:41.302Z,17.1
2022-08-07T06:48:37.023Z,17.3
2022-08-07T06:55:30.536Z,17
2022-08-07T07:01:57.698Z,17.2
2022-08-07T07:07:58.231Z,17
2022-08-07T07:14:10.394Z,16.8
2022-08-07T07:20:08.997Z,17.2
2022-08-07T07:26:33.636Z,17.1
2022-08-07T07:32:35.760Z,17.3
2022-08-07T07:38:32.244Z,17.4
2022-08-07T07:44:32.449Z,17.4
2022-08-07T07:50:31.986Z,17.5
2022-08-07T07:56:35.183Z,17.7
2022-08-07T08:02:33.847Z,17.6
2022-08-07T08:09:51.909Z,18.1
2022-08-07T08:16:25.831Z,18.3
2022-08-07T08:24:34.444Z,18.5
2022-08-07T08:31:30.455Z,18.8
2022-08-07T08:38:25.983Z,18.9
2022-08-07T08:44:31.545Z,19
2022-08-07T08:50:39.390Z,19.3
2022-08-07T08:56:36.102Z,19.4
2022-08-07T09:02:37.694Z,19.7
2022-08-07T09:08:37.487Z,19.8
2022-08-07T09:14:35.139Z,19.9
2022-08-07T09:20:43.296Z,20.2
2022-08-07T09:27:54.895Z,20.2
2022-08-07T09:36:01.877Z,20.9
2022-08-07T09:42:04.155Z,20.7
2022-08-07T09:48:18.935Z,21
2022-08-07T09:56:02.898Z,21.1
2022-08-07T10:02:24.191Z,21.2
2022-08-07T10:08:21.225Z,21.3
2022-08-07T10:14:22.752Z,21.7
2022-08-07T10:20:30.666Z,21.4
2022-08-07T10:26:28.870Z,21.7
2022-08-07T10:32:36.617Z,21.7
2022-08-07T10:38:49.796Z,22
2022-08-07T10:44:45.113Z,21.9
2022-08-07T10:50:40.690Z,22.6
2022-08-07T10:56:39.611Z,22
2022-08-07T11:02:35.734Z,22.2
2022-08-07T11:08:40.628Z,22.5
2022-08-07T11:14:42.807Z,22.9
2022-08-07T11:21:00.077Z,22.9
2022-08-07T11:26:53.545Z,22.7
2022-08-07T11:32:50.646Z,23
2022-08-07T11:38:51.339Z,22.7
2022-08-07T11:44:51.940Z,22.8
2022-08-07T11:50:57.577Z,23.4
2022-08-07T11:57:25.042Z,23.5
2022-08-07T12:04:14.610Z,23.2
2022-08-07T12:10:12.520Z,23.3
2022-08-07T12:16:06.456Z,23.6
2022-08-07T12:22:36.873Z,23.7
2022-08-07T12:29:00.584Z,23.7
2022-08-07T12:34:56.570Z,24
2022-08-07T12:41:03.050Z,23.7
2022-08-07T12:47:01.038Z,24.3
2022-08-07T12:53:17.351Z,24.2
2022-08-07T13:00:20.826Z,24.3
2022-08-07T13:06:54.120Z,24.5
2022-08-07T13:12:51.095Z,24.5
2022-08-07T13:18:44.765Z,24.5
2022-08-07T13:24:52.295Z,24.5
2022-08-07T13:30:53.335Z,24.4
2022-08-07T13:37:01.640Z,24.7
2022-08-07T13:43:24.940Z,24.9
2022-08-07T13:50:32.238Z,25.1
2022-08-07T13:58:02.617Z,25
2022-08-07T14:04:15.512Z,25.5
2022-08-07T14:10:32.083Z,24.9
2022-08-07T14:17:12.963Z,25.2
2022-08-07T14:24:20.312Z,25.1
2022-08-07T14:30:27.661Z,25.7
2022-08-07T14:36:28.962Z,25.8
2022-08-07T14:42:27.480Z,25.4
2022-08-07T14:49:59.310Z,25.7
2022-08-07T15:57:51.656Z,25.8
2022-08-07T16:03:57.317Z,25.9
2022-08-07T16:09:59.979Z,25.7
2022-08-07T16:16:04.758Z,25.8
2022-08-07T16:22:47.028Z,25.8
2022-08-07T16:30:08.176Z,25.7
2022-08-07T16:36:32.682Z,25.7
2022-08-07T16:44:02.936Z,25.7
2022-08-07T16:53:10.006Z,25.7
2022-08-07T17:00:00.906Z,25.6
2022-08-07T17:06:28.334Z,25.8
2022-08-07T17:12:46.896Z,25.6
2022-08-07T17:18:55.233Z,25.6
2022-08-07T17:26:01.809Z,25.5
2022-08-07T17:32:35.415Z,25.5
2022-08-07T17:38:45.127Z,25.4
2022-08-07T17:44:54.492Z,25.5
2022-08-07T17:50:58.747Z,25.3
2022-08-07T17:57:00.797Z,25.3
2022-08-07T18:03:09.167Z,25.1
2022-08-07T18:09:11.020Z,24.9
2022-08-07T18:16:16.083Z,24.8
2022-08-07T18:22:46.340Z,24.7
2022-08-07T18:28:57.989Z,24.5
2022-08-07T18:35:50.180Z,24.4
2022-08-07T18:41:45.569Z,24.1
2022-08-07T18:47:44.881Z,24
2022-08-07T18:53:48.586Z,23.8
2022-08-07T18:59:58.740Z,23.7
2022-08-07T19:06:32.421Z,23.6
2022-08-07T19:12:36.085Z,23.4
2022-08-07T19:19:13.075Z,23.2
2022-08-07T19:26:22.367Z,23.2
2022-08-07T19:37:09.748Z,23.1
2022-08-07T19:43:44.326Z,22.7
2022-08-07T19:50:41.771Z,22.4
2022-08-07T19:56:58.696Z,22
2022-08-07T20:04:11.211Z,21.9
2022-08-07T20:10:34.834Z,21.9
2022-08-07T20:16:57.743Z,21.5
2022-08-07T20:22:50.977Z,21.4
2022-08-07T20:28:45.409Z,21.2
2022-08-07T20:34:50.543Z,20.9
2022-08-07T20:40:41.519Z,20.9
2022-08-07T20:46:43.159Z,20.6
2022-08-07T20:52:57.270Z,20.5
2022-08-07T20:58:50.392Z,20.5
2022-08-07T21:04:46.240Z,20.3
2022-08-07T21:10:38.680Z,20
2022-08-07T21:16:37.881Z,19.7
2022-08-07T21:24:21.146Z,19.7
2022-08-07T21:30:23.662Z,19.6
2022-08-07T21:36:31.022Z,19.4
2022-08-07T21:42:42.176Z,19.4
2022-08-07T21:48:42.697Z,19.3
2022-08-07T21:54:48.656Z,19.2
2022-08-07T22:00:40.936Z,19
2022-08-07T22:06:34.118Z,18.9
2022-08-07T22:12:37.174Z,18.9
2022-08-07T22:18:33.534Z,18.8
2022-08-07T22:24:32.804Z,18.8
2022-08-07T22:30:26.524Z,18.8
2022-08-07T22:36:21.798Z,18.8
2022-08-07T22:42:18.800Z,18.5
2022-08-07T22:48:55.162Z,17.9
2022-08-07T22:55:15.032Z,18
2022-08-07T23:01:19.856Z,18.1
2022-08-07T23:07:40.074Z,18.1
2022-08-07T23:13:48.327Z,17.9
2022-08-07T23:20:12.327Z,17.8
2022-08-07T23:26:35.692Z,17.8
2022-08-07T23:34:24.384Z,17.7
2022-08-07T23:47:18.607Z,17.5
